createdAt,value
2023-02-11T00:01:31.564Z,-4.79
2023-02-11T00:04:34.487Z,-5.10
2023-02-11T00:07:37.805Z,-4.98
2023-02-11T00:10:40.689Z,-4.93
2023-02-11T00:13:44.394Z,-4.92
2023-02-11T00:16:47.360Z,-4.98
2023-02-11T00:19:51.433Z,-4.67
2023-02-11T00:22:54.327Z,-4.58
2023-02-11T00:25:56.977Z,-3.77
2023-02-11T00:29:00.933Z,-3.94
2023-02-11T00:32:05.378Z,-4.19
2023-02-11T00:35:08.591Z,-4.50
2023-02-11T00:38:11.234Z,-3.97
2023-02-11T00:41:15.000Z,-3.77
2023-02-11T00:44:17.797Z,-4.07
2023-02-11T00:47:23.544Z,-3.99
2023-02-11T00:50:26.432Z,-3.94
2023-02-11T00:53:31.098Z,-4.24
2023-02-11T00:56:33.887Z,-4.49
2023-02-11T00:59:37.010Z,-4.61
2023-02-11T01:02:39.844Z,-4.06
2023-02-11T01:05:42.821Z,-4.25
2023-02-11T01:08:45.561Z,-3.38
2023-02-11T01:11:48.639Z,-3.36
2023-02-11T01:14:51.346Z,-4.16
2023-02-11T01:17:54.429Z,-3.77
2023-02-11T01:20:57.044Z,-3.12
2023-02-11T01:23:59.992Z,-3.10
2023-02-11T01:27:02.631Z,-4.70
2023-02-11T01:30:08.581Z,-5.14
2023-02-11T01:33:12.489Z,-5.40
2023-02-11T01:36:15.440Z,-5.43
2023-02-11T01:39:18.107Z,-5.67
2023-02-11T01:42:23.731Z,-4.93
2023-02-11T01:45:52.801Z,-4.30
2023-02-11T01:49:02.774Z,-4.22
2023-02-11T01:52:11.284Z,-3.58
2023-02-11T01:55:33.087Z,-4.36
2023-02-11T01:58:39.546Z,-4.23
2023-02-11T02:01:48.026Z,-4.50
2023-02-11T02:04:59.162Z,-4.08
2023-02-11T02:08:25.913Z,-4.44
2023-02-11T02:11:29.006Z,-4.92
2023-02-11T02:14:31.652Z,-4.05
2023-02-11T02:17:42.511Z,-4.67
2023-02-11T02:21:41.600Z,-4.92
2023-02-11T02:25:35.684Z,-5.11
2023-02-11T02:29:09.279Z,-5.36
2023-02-11T02:32:26.960Z,-4.19
2023-02-11T02:35:44.795Z,-3.91
2023-02-11T02:39:04.343Z,-4.49
2023-02-11T02:42:07.522Z,-4.78
2023-02-11T02:45:12.009Z,-4.47
2023-02-11T02:48:29.954Z,-4.55
2023-02-11T02:52:05.670Z,-4.47
2023-02-11T02:55:29.785Z,-5.41
2023-02-11T02:58:51.626Z,-5.79
2023-02-11T03:02:13.184Z,-5.93
2023-02-11T03:05:27.857Z,-6.02
2023-02-11T03:08:39.172Z,-5.01
2023-02-11T03:11:42.200Z,-5.48
2023-02-11T03:14:46.223Z,-4.98
2023-02-11T03:17:52.502Z,-5.25
2023-02-11T03:20:56.917Z,-5.47
2023-02-11T03:24:05.973Z,-4.28
2023-02-11T03:27:41.544Z,-4.77
2023-02-11T03:30:56.176Z,-4.96
2023-02-11T03:34:30.369Z,-4.30
2023-02-11T03:37:52.044Z,-4.89
2023-02-11T03:40:56.700Z,-4.77
2023-02-11T03:44:01.084Z,-4.62
2023-02-11T03:47:08.907Z,-4.85
2023-02-11T03:50:14.824Z,-5.04
2023-02-11T03:53:19.069Z,-4.96
2023-02-11T03:56:26.448Z,-4.90
2023-02-11T03:59:29.385Z,-5.23
2023-02-11T04:02:35.976Z,-4.76
2023-02-11T04:05:39.174Z,-5.05
2023-02-11T04:08:41.799Z,-5.70
2023-02-11T04:11:44.676Z,-4.74
2023-02-11T04:14:47.391Z,-4.80
2023-02-11T04:17:50.531Z,-5.12
2023-02-11T04:20:53.212Z,-5.21
2023-02-11T04:23:56.098Z,-5.08
2023-02-11T04:26:58.918Z,-5.90
2023-02-11T04:30:02.581Z,-6.24
2023-02-11T04:33:05.308Z,-5.57
2023-02-11T04:36:08.587Z,-5.74
2023-02-11T04:39:11.186Z,-4.82
2023-02-11T04:42:14.256Z,-4.84
2023-02-11T04:45:16.946Z,-5.15
2023-02-11T04:48:20.159Z,-5.27
2023-02-11T04:51:23.547Z,-4.51
2023-02-11T04:54:26.490Z,-4.34
2023-02-11T04:57:29.179Z,-4.84
2023-02-11T05:00:32.160Z,-3.97
2023-02-11T05:03:35.179Z,-4.56
2023-02-11T05:06:39.778Z,-5.35
2023-02-11T05:09:42.289Z,-5.39
2023-02-11T05:12:45.205Z,-5.95
2023-02-11T05:15:47.921Z,-6.17
2023-02-11T05:18:52.613Z,-5.85
2023-02-11T05:22:02.498Z,-5.70
2023-02-11T05:25:06.550Z,-5.13
2023-02-11T05:28:09.404Z,-6.05
2023-02-11T05:31:14.660Z,-5.76
2023-02-11T05:34:17.513Z,-5.65
2023-02-11T05:37:20.396Z,-4.69
2023-02-11T05:40:23.078Z,-6.01
2023-02-11T05:43:26.289Z,-5.48
2023-02-11T05:46:29.006Z,-5.56
2023-02-11T05:49:32.161Z,-4.59
2023-02-11T05:52:34.786Z,-4.32
2023-02-11T05:55:38.500Z,-4.58
2023-02-11T05:58:41.451Z,-5.20
2023-02-11T06:01:44.552Z,-5.74
2023-02-11T06:04:47.493Z,-5.96
2023-02-11T06:07:50.193Z,-5.30
2023-02-11T06:10:53.193Z,-5.14
2023-02-11T06:13:55.833Z,-5.15
2023-02-11T06:16:58.746Z,-4.61
2023-02-11T06:20:02.967Z,-5.55
2023-02-11T06:23:05.904Z,-5.15
2023-02-11T06:26:15.717Z,-5.54
2023-02-11T06:29:18.639Z,-5.36
2023-02-11T06:32:42.163Z,-5.50
2023-02-11T06:35:44.109Z,-5.12
2023-02-11T06:38:47.073Z,-5.18
2023-02-11T06:41:50.138Z,-5.15
2023-02-11T06:44:52.758Z,-4.50
2023-02-11T06:47:55.716Z,-4.54
2023-02-11T06:51:03.260Z,-4.02
2023-02-11T06:54:07.186Z,-3.91
2023-02-11T06:57:09.766Z,-4.08
2023-02-11T07:00:13.600Z,-3.89
2023-02-11T07:03:16.434Z,-3.50
2023-02-11T07:06:22.343Z,-3.36
2023-02-11T07:09:25.430Z,-2.34
2023-02-11T07:12:28.495Z,-2.27
2023-02-11T07:15:31.101Z,-2.16
2023-02-11T07:18:34.562Z,-2.28
2023-02-11T07:21:37.557Z,-1.87
2023-02-11T07:24:40.440Z,-1.60
2023-02-11T07:27:43.070Z,-1.48
2023-02-11T07:30:46.022Z,-1.17
2023-02-11T07:33:49.002Z,-0.91
2023-02-11T07:36:51.943Z,-0.77
2023-02-11T07:39:54.545Z,-0.62
2023-02-11T07:42:57.837Z,-0.24
2023-02-11T07:46:04.839Z,-0.09
2023-02-11T07:49:07.857Z,0.03
2023-02-11T07:52:10.400Z,-0.33
2023-02-11T07:55:13.350Z,0.07
2023-02-11T07:58:15.919Z,0.36
2023-02-11T08:01:22.754Z,0.56
2023-02-11T08:04:25.690Z,0.73
2023-02-11T08:07:29.782Z,1.16
2023-02-11T08:10:32.726Z,1.34
2023-02-11T08:13:36.204Z,1.46
2023-02-11T08:16:39.843Z,1.50
2023-02-11T08:19:42.677Z,1.69
2023-02-11T08:22:45.570Z,2.06
2023-02-11T08:25:48.329Z,2.20
2023-02-11T08:28:53.538Z,2.43
2023-02-11T08:31:56.136Z,2.26
2023-02-11T08:34:59.068Z,2.61
2023-02-11T08:38:01.685Z,2.43
2023-02-11T08:41:04.921Z,2.96
2023-02-11T08:44:07.687Z,3.09
2023-02-11T08:47:10.606Z,3.54
2023-02-11T08:50:13.322Z,3.59
2023-02-11T08:53:16.260Z,3.77
2023-02-11T08:56:21.052Z,4.50
2023-02-11T08:59:24.084Z,4.68
2023-02-11T09:02:27.543Z,4.72
2023-02-11T09:05:30.545Z,4.50
2023-02-11T09:08:41.618Z,4.71
2023-02-11T09:11:45.752Z,5.36
2023-02-11T09:14:48.376Z,5.32
2023-02-11T09:17:51.281Z,5.34
2023-02-11T09:20:54.350Z,5.54
2023-02-11T09:23:57.621Z,5.71
2023-02-11T09:27:00.262Z,5.72
2023-02-11T09:30:03.851Z,5.56
2023-02-11T09:33:06.545Z,5.60
2023-02-11T09:36:09.663Z,5.56
2023-02-11T09:39:17.112Z,5.73
2023-02-11T09:42:39.622Z,5.68
2023-02-11T09:45:42.690Z,5.95
2023-02-11T09:48:49.346Z,6.21
2023-02-11T09:51:59.214Z,6.19
2023-02-11T09:55:23.169Z,6.34
2023-02-11T09:58:29.721Z,6.04
2023-02-11T10:01:35.447Z,6.37
2023-02-11T10:05:05.641Z,6.75
2023-02-11T10:08:36.801Z,6.81
2023-02-11T10:12:01.213Z,6.58
2023-02-11T10:15:20.682Z,6.88
2023-02-11T10:18:46.629Z,6.72
2023-02-11T10:22:22.435Z,7.14
2023-02-11T10:25:45.174Z,6.94
2023-02-11T10:28:51.097Z,6.96
2023-02-11T10:31:56.593Z,7.02
2023-02-11T10:35:04.843Z,6.73
2023-02-11T10:38:09.082Z,6.74
2023-02-11T10:41:20.338Z,6.97
2023-02-11T10:44:28.932Z,6.99
2023-02-11T10:47:37.626Z,7.20
2023-02-11T10:50:40.657Z,7.24
2023-02-11T10:53:44.092Z,6.89
2023-02-11T10:56:50.574Z,7.03
2023-02-11T10:59:59.338Z,7.46
2023-02-11T11:03:05.580Z,6.98
2023-02-11T11:06:11.430Z,7.15
2023-02-11T11:09:31.138Z,6.79
2023-02-11T11:12:45.640Z,6.89
2023-02-11T11:16:09.651Z,6.98
2023-02-11T11:19:13.702Z,6.90
2023-02-11T11:22:22.731Z,7.03
2023-02-11T11:25:29.546Z,7.20
2023-02-11T11:28:58.645Z,7.40
2023-02-11T11:32:28.032Z,7.31
2023-02-11T11:35:34.465Z,7.52
2023-02-11T11:38:43.729Z,7.93
2023-02-11T11:41:55.948Z,8.18
2023-02-11T11:45:04.765Z,8.10
2023-02-11T11:48:33.087Z,8.35
2023-02-11T11:51:39.259Z,8.62
2023-02-11T11:54:50.229Z,8.30
2023-02-11T11:57:53.381Z,8.36
2023-02-11T12:01:08.084Z,8.45
2023-02-11T12:04:16.746Z,8.54
2023-02-11T12:07:31.246Z,8.27
2023-02-11T12:10:50.556Z,8.45
2023-02-11T12:14:13.539Z,8.03
2023-02-11T12:17:47.342Z,7.97
2023-02-11T12:21:08.143Z,7.97
2023-02-11T12:24:31.044Z,8.00
2023-02-11T12:27:42.545Z,8.46
2023-02-11T12:30:51.542Z,8.49
2023-02-11T12:34:06.226Z,8.56
2023-02-11T12:37:31.870Z,8.64
2023-02-11T12:40:52.709Z,8.09
2023-02-11T12:43:56.224Z,8.44
2023-02-11T12:47:22.023Z,8.23
2023-02-11T12:50:34.998Z,8.20
2023-02-11T12:53:47.978Z,8.45
2023-02-11T12:56:53.778Z,8.01
2023-02-11T13:00:07.066Z,8.60
2023-02-11T13:03:09.934Z,8.45
2023-02-11T13:06:17.897Z,8.19
2023-02-11T13:09:30.453Z,8.06
2023-02-11T13:12:53.946Z,7.83
2023-02-11T13:16:01.646Z,8.22
2023-02-11T13:19:10.489Z,8.70
2023-02-11T13:22:39.919Z,8.79
2023-02-11T13:25:54.878Z,8.99
2023-02-11T13:29:27.615Z,8.54
2023-02-11T13:32:56.168Z,8.39
2023-02-11T13:35:58.947Z,8.06
2023-02-11T13:39:04.720Z,7.69
2023-02-11T13:42:15.938Z,7.59
2023-02-11T13:45:41.002Z,7.77
2023-02-11T13:48:53.237Z,8.04
2023-02-11T13:51:56.923Z,7.98
2023-02-11T13:55:05.820Z,7.76
2023-02-11T13:58:08.675Z,7.54
2023-02-11T14:01:11.748Z,7.76
2023-02-11T14:04:41.023Z,7.49
2023-02-11T14:08:28.695Z,7.29
2023-02-11T14:11:35.206Z,7.13
2023-02-11T14:15:17.644Z,7.80
2023-02-11T14:18:39.740Z,7.82
2023-02-11T14:21:44.358Z,7.40
2023-02-11T14:24:49.310Z,8.10
2023-02-11T14:28:08.785Z,7.86
2023-02-11T14:31:34.243Z,8.06
2023-02-11T14:34:58.933Z,8.17
2023-02-11T14:38:22.731Z,7.29
2023-02-11T14:41:29.506Z,7.34
2023-02-11T14:44:34.183Z,7.54
2023-02-11T14:47:55.535Z,7.77
2023-02-11T14:51:12.968Z,7.52
2023-02-11T14:54:19.092Z,7.18
2023-02-11T14:57:22.277Z,6.94
2023-02-11T15:00:25.192Z,7.17
2023-02-11T15:03:37.476Z,6.98
2023-02-11T15:06:42.812Z,6.84
2023-02-11T15:09:51.421Z,6.96
2023-02-11T15:12:54.873Z,6.61
2023-02-11T15:16:05.158Z,6.07
2023-02-11T15:19:19.201Z,5.84
2023-02-11T15:22:26.225Z,5.85
2023-02-11T15:25:34.352Z,6.03
2023-02-11T15:28:37.472Z,5.97
2023-02-11T15:31:40.262Z,6.13
2023-02-11T15:34:45.375Z,5.76
2023-02-11T15:37:50.623Z,5.53
2023-02-11T15:41:02.168Z,5.45
2023-02-11T15:44:05.380Z,5.22
2023-02-11T15:47:20.606Z,5.27
2023-02-11T15:50:26.888Z,5.10
2023-02-11T15:53:43.148Z,5.02
2023-02-11T15:56:50.148Z,4.88
2023-02-11T15:59:54.904Z,4.59
2023-02-11T16:02:57.794Z,4.23
2023-02-11T16:06:21.160Z,4.40
2023-02-11T16:09:36.805Z,4.18
2023-02-11T16:12:39.939Z,4.17
2023-02-11T16:15:52.023Z,4.10
2023-02-11T16:19:04.982Z,4.13
2023-02-11T16:22:15.785Z,4.02
2023-02-11T16:25:22.885Z,3.98
2023-02-11T16:28:26.127Z,3.95
2023-02-11T16:31:43.749Z,3.82
2023-02-11T16:34:48.332Z,4.06
2023-02-11T16:37:51.851Z,4.03
2023-02-11T16:40:54.745Z,3.88
2023-02-11T16:43:58.915Z,3.95
2023-02-11T16:47:03.901Z,4.00
2023-02-11T16:50:19.366Z,4.02
2023-02-11T16:53:24.238Z,4.07
2023-02-11T16:56:28.093Z,3.84
2023-02-11T16:59:30.805Z,3.93
2023-02-11T17:02:36.196Z,4.04
2023-02-11T17:05:58.350Z,3.61
2023-02-11T17:09:01.727Z,3.47
2023-02-11T17:12:05.057Z,3.37
2023-02-11T17:15:08.662Z,3.23
2023-02-11T17:18:14.678Z,3.23
2023-02-11T17:21:17.890Z,3.15
2023-02-11T17:24:21.811Z,3.42
2023-02-11T17:27:25.101Z,3.49
2023-02-11T17:30:27.976Z,3.62
2023-02-11T17:33:31.062Z,3.60
2023-02-11T17:36:34.394Z,3.35
2023-02-11T17:39:39.972Z,3.38
2023-02-11T17:42:43.350Z,3.50
2023-02-11T17:45:46.585Z,3.26
2023-02-11T17:48:50.245Z,3.28
2023-02-11T17:51:53.431Z,3.12
2023-02-11T17:54:56.419Z,3.18
2023-02-11T17:58:00.017Z,3.49
2023-02-11T18:01:03.044Z,3.40
2023-02-11T18:04:08.309Z,3.62
2023-02-11T18:07:11.236Z,3.49
2023-02-11T18:10:14.762Z,3.45
2023-02-11T18:13:18.346Z,3.60
2023-02-11T18:16:23.479Z,3.58
2023-02-11T18:19:26.248Z,4.02
2023-02-11T18:22:33.652Z,3.92
2023-02-11T18:25:36.945Z,4.02
2023-02-11T18:28:41.176Z,3.96
2023-02-11T18:31:44.874Z,4.05
2023-02-11T18:34:48.204Z,4.02
2023-02-11T18:37:52.120Z,3.90
2023-02-11T18:40:57.699Z,3.85
2023-02-11T18:44:03.208Z,3.81
2023-02-11T18:47:06.367Z,3.87
2023-02-11T18:50:10.325Z,3.99
2023-02-11T18:53:16.008Z,4.25
2023-02-11T18:56:22.360Z,4.04
2023-02-11T18:59:26.722Z,4.12
2023-02-11T19:02:29.733Z,4.39
2023-02-11T19:05:40.073Z,4.23
2023-02-11T19:08:42.973Z,4.15
2023-02-11T19:11:50.429Z,4.11
2023-02-11T19:14:53.351Z,4.64
2023-02-11T19:17:56.491Z,4.54
2023-02-11T19:20:59.182Z,4.56
2023-02-11T19:24:07.514Z,4.38
2023-02-11T19:27:10.340Z,4.50
2023-02-11T19:30:14.046Z,4.86
2023-02-11T19:33:16.665Z,4.73
2023-02-11T19:36:21.382Z,4.67
2023-02-11T19:39:24.851Z,4.79
2023-02-11T19:42:28.094Z,4.85
2023-02-11T19:45:31.547Z,4.63
2023-02-11T19:48:34.867Z,4.50
2023-02-11T19:51:39.560Z,4.50
2023-02-11T19:54:42.893Z,4.31
2023-02-11T19:57:45.933Z,4.25
2023-02-11T20:00:49.543Z,4.35
2023-02-11T20:03:54.394Z,4.21
2023-02-11T20:06:58.515Z,4.51
2023-02-11T20:10:01.759Z,4.54
2023-02-11T20:13:04.867Z,4.50
2023-02-11T20:16:12.433Z,4.26
2023-02-11T20:19:20.374Z,4.08
2023-02-11T20:22:23.799Z,4.40
2023-02-11T20:25:26.741Z,4.32
2023-02-11T20:28:30.156Z,4.45
2023-02-11T20:31:34.077Z,4.66
2023-02-11T20:34:37.165Z,4.56
2023-02-11T20:37:42.268Z,4.61
2023-02-11T20:40:47.073Z,4.72
2023-02-11T20:43:53.235Z,4.59
2023-02-11T20:46:56.909Z,4.82
2023-02-11T20:49:59.842Z,4.74
2023-02-11T20:53:03.251Z,4.81
2023-02-11T20:56:09.167Z,4.92
2023-02-11T20:59:13.914Z,4.90
2023-02-11T21:02:17.657Z,4.88
2023-02-11T21:05:20.869Z,4.86
2023-02-11T21:08:23.864Z,4.86
2023-02-11T21:11:27.065Z,5.11
2023-02-11T21:14:30.277Z,4.98
2023-02-11T21:17:34.856Z,5.13
2023-02-11T21:20:37.756Z,5.54
2023-02-11T21:23:41.026Z,5.28
2023-02-11T21:26:43.849Z,5.27
2023-02-11T21:29:54.093Z,5.23
2023-02-11T21:33:00.753Z,5.17
2023-02-11T21:36:05.868Z,5.42
2023-02-11T21:39:09.130Z,5.18
2023-02-11T21:42:12.679Z,5.11
2023-02-11T21:45:16.713Z,5.46
2023-02-11T21:48:19.779Z,5.44
2023-02-11T21:51:28.140Z,5.56
2023-02-11T21:54:32.306Z,5.41
2023-02-11T21:57:35.004Z,5.64
2023-02-11T22:00:38.935Z,5.40
2023-02-11T22:03:42.715Z,5.74
2023-02-11T22:06:45.428Z,5.67
2023-02-11T22:09:50.409Z,5.07
2023-02-11T22:12:53.023Z,5.40
2023-02-11T22:16:05.211Z,5.40
2023-02-11T22:19:07.885Z,5.83
2023-02-11T22:22:10.825Z,5.87
2023-02-11T22:25:13.420Z,5.88
2023-02-11T22:28:16.352Z,5.65
2023-02-11T22:31:22.321Z,6.01
2023-02-11T22:34:25.337Z,5.93
2023-02-11T22:37:28.074Z,5.88
2023-02-11T22:40:31.015Z,6.02
2023-02-11T22:43:33.950Z,5.49
2023-02-11T22:46:37.205Z,5.85
2023-02-11T22:49:41.407Z,6.02
2023-02-11T22:52:44.367Z,6.15
2023-02-11T22:55:47.208Z,5.63
2023-02-11T22:58:50.918Z,5.16
2023-02-11T23:01:54.365Z,5.23
2023-02-11T23:04:57.394Z,5.80
2023-02-11T23:08:00.027Z,5.37
2023-02-11T23:11:08.786Z,5.67
2023-02-11T23:14:12.249Z,5.94
2023-02-11T23:17:15.275Z,5.86
2023-02-11T23:20:17.955Z,5.81
2023-02-11T23:23:20.838Z,5.65
2023-02-11T23:26:24.212Z,5.28
2023-02-11T23:29:27.910Z,5.20
2023-02-11T23:32:31.211Z,5.46
2023-02-11T23:35:34.331Z,5.24
2023-02-11T23:38:36.909Z,5.31
2023-02-11T23:41:40.217Z,5.58
2023-02-11T23:44:44.838Z,5.67
2023-02-11T23:47:47.738Z,5.52
2023-02-11T23:50:50.413Z,5.62
2023-02-11T23:53:54.826Z,5.57
2023-02-11T23:56:57.485Z,5.75
